createdAt,value
2018-06-30T00:00:15.010Z,99.99
2018-06-30T00:01:14.783Z,99.99
2018-06-30T00:02:14.760Z,99.99
2018-06-30T00:03:14.735Z,99.99
2018-06-30T00:04:14.714Z,99.99
2018-06-30T00:05:14.690Z,99.99
2018-06-30T00:06:14.662Z,99.99
2018-06-30T00:07:14.840Z,99.99
2018-06-30T00:08:14.613Z,99.99
2018-06-30T00:09:14.589Z,99.99
2018-06-30T00:10:14.568Z,99.99
2018-06-30T00:11:15.393Z,99.99
2018-06-30T00:12:14.519Z,99.99
2018-06-30T00:13:14.700Z,99.99
2018-06-30T00:14:14.673Z,99.99
2018-06-30T00:15:14.445Z,99.99
2018-06-30T00:16:14.420Z,99.99
2018-06-30T00:17:14.396Z,99.99
2018-06-30T00:18:14.377Z,99.99
2018-06-30T00:19:14.351Z,99.99
2018-06-30T00:20:14.324Z,99.99
2018-06-30T00:21:14.301Z,99.99
2018-06-30T00:22:14.278Z,99.99
2018-06-30T00:23:14.255Z,99.99
2018-06-30T00:24:14.231Z,99.99
2018-06-30T00:25:14.205Z,99.99
2018-06-30T00:26:14.181Z,99.99
2018-06-30T00:27:14.156Z,99.99
2018-06-30T00:28:14.334Z,99.99
2018-06-30T00:29:14.112Z,99.99
2018-06-30T00:30:14.088Z,99.99
2018-06-30T00:31:14.062Z,99.99
2018-06-30T00:32:14.037Z,99.99
2018-06-30T00:33:14.014Z,99.99
2018-06-30T00:34:13.991Z,99.99
2018-06-30T00:35:13.964Z,99.99
2018-06-30T00:36:13.940Z,99.99
2018-06-30T00:37:13.924Z,99.99
2018-06-30T00:38:13.907Z,99.99
2018-06-30T00:39:13.866Z,99.99
2018-06-30T00:40:13.844Z,99.99
2018-06-30T00:41:13.816Z,99.99
2018-06-30T00:42:13.795Z,99.99
2018-06-30T00:43:13.774Z,99.99
2018-06-30T00:44:13.748Z,99.99
2018-06-30T00:45:13.927Z,99.99
2018-06-30T00:46:13.700Z,99.99
2018-06-30T00:47:13.977Z,99.99
2018-06-30T00:48:13.649Z,99.99
2018-06-30T00:49:13.623Z,99.99
2018-06-30T00:50:13.599Z,99.99
2018-06-30T00:51:13.576Z,99.99
2018-06-30T00:52:13.767Z,99.99
2018-06-30T00:53:13.531Z,99.99
2018-06-30T00:54:13.505Z,99.99
2018-06-30T00:55:13.485Z,99.99
2018-06-30T00:56:13.657Z,99.99
2018-06-30T00:57:13.633Z,99.99
2018-06-30T00:58:13.405Z,99.99
2018-06-30T00:59:13.381Z,99.99
2018-06-30T01:00:13.354Z,99.99
2018-06-30T01:01:13.332Z,99.99
2018-06-30T01:02:13.311Z,99.99
2018-06-30T01:03:13.285Z,99.99
2018-06-30T01:04:13.260Z,99.99
2018-06-30T01:05:13.235Z,99.99
2018-06-30T01:06:13.209Z,99.99
2018-06-30T01:07:13.390Z,99.99
2018-06-30T01:08:13.363Z,99.99
2018-06-30T01:09:13.138Z,99.99
2018-06-30T01:10:13.317Z,99.99
2018-06-30T01:11:13.291Z,99.99
2018-06-30T01:12:13.065Z,99.99
2018-06-30T01:13:13.041Z,99.99
2018-06-30T01:14:13.015Z,99.99
2018-06-30T01:15:12.990Z,99.99
2018-06-30T01:16:12.965Z,99.99
2018-06-30T01:17:12.941Z,99.99
2018-06-30T01:18:12.919Z,99.99
2018-06-30T01:19:13.097Z,99.99
2018-06-30T01:20:13.070Z,99.99
2018-06-30T01:21:12.845Z,99.99
2018-06-30T01:22:12.821Z,99.99
2018-06-30T01:23:12.804Z,99.99
2018-06-30T01:24:12.774Z,99.99
2018-06-30T01:25:12.747Z,99.99
2018-06-30T01:26:12.721Z,99.99
2018-06-30T01:27:12.696Z,99.99
2018-06-30T01:28:12.670Z,99.99
2018-06-30T01:29:12.647Z,99.99
2018-06-30T01:30:12.623Z,99.99
2018-06-30T01:31:12.602Z,99.99
2018-06-30T01:32:12.578Z,99.99
2018-06-30T01:33:12.550Z,99.99
2018-06-30T01:34:12.524Z,99.99
2018-06-30T01:35:54.857Z,99.99
2018-06-30T01:36:54.628Z,99.99
2018-06-30T01:37:54.603Z,99.99
2018-06-30T01:38:54.580Z,99.99
2018-06-30T01:39:54.553Z,99.99
2018-06-30T01:40:54.532Z,99.99
2018-06-30T01:41:54.502Z,99.99
2018-06-30T01:42:54.682Z,99.99
2018-06-30T01:43:54.477Z,99.99
2018-06-30T01:44:54.430Z,99.99
2018-06-30T01:45:54.405Z,99.99
2018-06-30T01:46:54.379Z,99.99
2018-06-30T01:47:54.355Z,99.99
2018-06-30T01:48:54.328Z,99.99
2018-06-30T01:49:54.305Z,99.99
2018-06-30T01:50:54.284Z,99.99
2018-06-30T01:51:54.255Z,99.99
2018-06-30T01:52:54.230Z,99.99
2018-06-30T01:53:54.204Z,99.99
2018-06-30T01:54:54.190Z,99.99
2018-06-30T01:55:54.167Z,99.99
2018-06-30T01:56:54.338Z,99.99
2018-06-30T01:57:54.109Z,99.99
2018-06-30T01:58:54.288Z,99.99
2018-06-30T01:59:54.058Z,99.99
2018-06-30T02:00:54.033Z,99.99
2018-06-30T02:01:54.010Z,99.99
2018-06-30T02:02:53.985Z,99.99
2018-06-30T02:03:53.959Z,99.99
2018-06-30T02:04:53.934Z,99.99
2018-06-30T02:05:53.910Z,99.99
2018-06-30T02:06:53.884Z,99.99
2018-06-30T02:07:53.867Z,99.99
2018-06-30T02:08:53.838Z,99.99
2018-06-30T02:09:53.812Z,99.99
2018-06-30T02:10:53.786Z,99.99
2018-06-30T02:11:53.759Z,99.99
2018-06-30T02:12:53.734Z,99.99
2018-06-30T02:13:53.711Z,99.99
2018-06-30T02:14:53.686Z,99.99
2018-06-30T02:15:53.662Z,99.99
2018-06-30T02:16:53.638Z,99.99
2018-06-30T02:17:53.611Z,99.99
2018-06-30T02:18:53.595Z,99.99
2018-06-30T02:19:53.560Z,99.99
2018-06-30T02:20:53.536Z,99.99
2018-06-30T02:21:53.511Z,99.99
2018-06-30T02:23:35.841Z,99.99
2018-06-30T02:24:35.614Z,99.99
2018-06-30T02:25:35.591Z,99.99
2018-06-30T02:26:35.565Z,99.99
2018-06-30T02:27:35.538Z,99.99
2018-06-30T02:28:35.512Z,99.99
2018-06-30T02:29:35.488Z,99.99
2018-06-30T02:30:35.463Z,99.99
2018-06-30T02:31:35.441Z,99.99
2018-06-30T02:32:35.420Z,99.99
2018-06-30T02:33:35.389Z,99.99
2018-06-30T02:34:35.366Z,99.99
2018-06-30T02:35:35.340Z,99.99
2018-06-30T02:36:35.316Z,99.99
2018-06-30T02:38:17.644Z,99.99
2018-06-30T02:39:17.420Z,99.99
2018-06-30T02:40:17.391Z,99.99
2018-06-30T02:41:17.369Z,99.99
2018-06-30T02:42:17.339Z,99.99
2018-06-30T02:43:17.319Z,99.99
2018-06-30T02:44:17.289Z,99.99
2018-06-30T02:45:17.267Z,99.99
2018-06-30T02:46:17.241Z,99.99
2018-06-30T02:47:17.220Z,99.99
2018-06-30T02:53:13.052Z,99.99
2018-06-30T02:54:12.219Z,99.99
2018-06-30T02:55:12.395Z,99.99
2018-06-30T02:56:12.162Z,99.99
2018-06-30T02:57:12.339Z,99.99
2018-06-30T02:58:12.112Z,99.99
2018-06-30T02:59:12.085Z,99.99
2018-06-30T03:00:12.061Z,99.99
2018-06-30T03:01:12.090Z,99.99
2018-06-30T03:02:12.213Z,99.99
2018-06-30T03:03:11.991Z,99.99
2018-06-30T03:04:11.959Z,99.99
2018-06-30T03:05:11.935Z,99.99
2018-06-30T03:06:11.908Z,99.99
2018-06-30T03:07:11.884Z,99.99
2018-06-30T03:08:11.856Z,99.99
2018-06-30T03:09:11.833Z,99.99
2018-06-30T03:10:12.014Z,99.99
2018-06-30T03:11:11.785Z,99.99
2018-06-30T03:12:11.761Z,99.99
2018-06-30T03:13:11.732Z,99.99
2018-06-30T03:14:11.711Z,99.99
2018-06-30T03:15:11.685Z,99.99
2018-06-30T03:16:11.656Z,99.99
2018-06-30T03:17:11.664Z,99.99
2018-06-30T03:18:11.613Z,99.99
2018-06-30T03:19:11.581Z,99.99
2018-06-30T03:20:11.559Z,99.99
2018-06-30T03:21:11.532Z,99.99
2018-06-30T03:22:11.507Z,99.99
2018-06-30T03:23:11.483Z,99.99
2018-06-30T03:24:11.456Z,99.99
2018-06-30T03:25:11.433Z,99.99
2018-06-30T03:26:11.410Z,99.99
2018-06-30T03:27:11.381Z,99.99
2018-06-30T03:28:11.355Z,99.99
2018-06-30T03:29:11.329Z,99.99
2018-06-30T03:30:11.310Z,99.99
2018-06-30T03:31:11.283Z,99.99
2018-06-30T03:32:11.258Z,99.99
2018-06-30T03:33:11.236Z,99.99
2018-06-30T03:34:11.207Z,99.99
2018-06-30T03:35:11.182Z,99.99
2018-06-30T03:36:11.156Z,99.99
2018-06-30T03:37:11.132Z,99.99
2018-06-30T03:38:11.110Z,99.99
2018-06-30T03:39:11.079Z,99.99
2018-06-30T03:40:11.055Z,99.99
2018-06-30T03:41:11.029Z,99.99
2018-06-30T03:42:11.004Z,99.99
2018-06-30T03:43:10.977Z,99.99
2018-06-30T03:44:10.957Z,99.99
2018-06-30T03:45:10.936Z,99.99
2018-06-30T03:46:10.922Z,99.99
2018-06-30T03:47:10.882Z,99.99
2018-06-30T03:48:10.858Z,99.99
2018-06-30T03:49:10.830Z,99.99
2018-06-30T03:50:10.804Z,99.99
2018-06-30T03:51:10.780Z,99.99
2018-06-30T03:52:10.758Z,99.99
2018-06-30T03:53:10.939Z,99.99
2018-06-30T03:54:10.909Z,99.99
2018-06-30T03:55:10.688Z,99.99
2018-06-30T03:56:10.660Z,99.99
2018-06-30T03:57:10.638Z,99.99
2018-06-30T03:58:10.811Z,99.99
2018-06-30T03:59:10.787Z,99.99
2018-06-30T04:00:10.563Z,99.99
2018-06-30T04:01:10.539Z,99.99
2018-06-30T04:38:42.563Z,96.22
2018-06-30T04:39:42.336Z,96.37
2018-06-30T04:45:37.578Z,94.74
2018-06-30T04:46:37.352Z,93.63
2018-06-30T04:47:37.326Z,93.54
2018-06-30T04:48:37.305Z,93.35
2018-06-30T04:49:37.279Z,93.15
2018-06-30T04:50:37.254Z,92.86
2018-06-30T04:51:37.239Z,92.63
2018-06-30T04:52:37.213Z,92.33
2018-06-30T04:53:37.395Z,91.71
2018-06-30T04:54:37.168Z,91.13
2018-06-30T04:55:37.145Z,90.46
2018-06-30T04:56:37.324Z,89.93
2018-06-30T04:57:37.139Z,89.64
2018-06-30T04:58:37.077Z,89.74
2018-06-30T04:59:37.069Z,89.07
2018-06-30T05:00:37.032Z,89.83
2018-06-30T05:02:19.369Z,88.59
2018-06-30T05:03:19.147Z,89.07
2018-06-30T05:04:19.123Z,87.09
2018-06-30T05:05:19.103Z,86.71
2018-06-30T05:06:19.279Z,87.34
2018-06-30T05:07:19.056Z,87.48
2018-06-30T05:08:19.038Z,86.99
2018-06-30T05:09:19.015Z,86.61
2018-06-30T05:10:19.200Z,85.94
2018-06-30T05:11:19.175Z,85.31
2018-06-30T05:12:18.955Z,84.73
2018-06-30T05:13:18.931Z,84.34
2018-06-30T05:14:18.908Z,84.44
2018-06-30T05:15:20.088Z,85.36
2018-06-30T05:16:18.870Z,84.50
2018-06-30T05:17:18.844Z,85.55
2018-06-30T05:18:19.026Z,86.65
2018-06-30T05:19:18.803Z,84.83
2018-06-30T05:20:18.783Z,85.21
2018-06-30T05:21:18.786Z,84.69
2018-06-30T05:22:18.742Z,84.25
2018-06-30T05:23:18.722Z,83.14
2018-06-30T05:24:18.701Z,83.04
2018-06-30T05:25:18.678Z,82.75
2018-06-30T05:26:18.659Z,82.75
2018-06-30T05:39:15.457Z,77.61
2018-06-30T05:40:57.592Z,76.30
2018-06-30T05:41:57.572Z,76.40
2018-06-30T05:42:57.547Z,76.42
2018-06-30T05:43:57.328Z,76.59
2018-06-30T05:44:57.506Z,76.32
2018-06-30T05:45:57.283Z,76.45
2018-06-30T05:46:57.470Z,76.65
2018-06-30T05:47:57.449Z,76.23
2018-06-30T05:48:57.429Z,76.71
2018-06-30T05:49:57.616Z,76.42
2018-06-30T05:50:57.389Z,74.84
2018-06-30T05:51:57.369Z,74.84
2018-06-30T05:52:57.147Z,76.25
2018-06-30T05:53:57.127Z,78.31
2018-06-30T05:54:57.108Z,77.73
2018-06-30T05:55:57.090Z,77.58
2018-06-30T05:56:57.070Z,76.23
2018-06-30T05:57:57.050Z,78.21
2018-06-30T05:58:57.036Z,78.02
2018-06-30T05:59:57.019Z,77.50
2018-06-30T06:00:56.995Z,77.38
2018-06-30T06:01:56.976Z,77.67
2018-06-30T06:02:57.767Z,75.88
2018-06-30T06:03:56.940Z,75.97
2018-06-30T06:04:56.918Z,75.68
2018-06-30T06:05:57.102Z,75.68
2018-06-30T06:06:56.881Z,74.66
2018-06-30T06:07:57.067Z,74.51
2018-06-30T06:08:57.047Z,73.09
2018-06-30T06:09:57.086Z,72.71
2018-06-30T06:10:57.013Z,73.54
2018-06-30T06:11:56.993Z,74.27
2018-06-30T06:12:56.777Z,72.86
2018-06-30T06:13:56.753Z,71.80
2018-06-30T06:14:56.737Z,71.06
2018-06-30T06:15:56.739Z,70.90
2018-06-30T06:16:56.699Z,70.32
2018-06-30T06:17:56.679Z,69.84
2018-06-30T06:18:56.867Z,69.07
2018-06-30T06:19:56.849Z,68.30
2018-06-30T06:20:56.831Z,68.43
2018-06-30T06:21:56.611Z,68.30
2018-06-30T06:22:56.592Z,68.07
2018-06-30T06:23:56.574Z,68.91
2018-06-30T06:24:56.759Z,70.84
2018-06-30T06:25:56.545Z,70.36
2018-06-30T06:26:56.521Z,71.22
2018-06-30T06:27:56.507Z,71.67
2018-06-30T06:28:56.489Z,71.58
2018-06-30T06:29:56.469Z,72.15
2018-06-30T06:30:56.654Z,71.70
2018-06-30T06:31:56.438Z,71.36
2018-06-30T06:32:56.422Z,70.90
2018-06-30T06:34:00.445Z,68.17
2018-06-30T06:34:56.589Z,68.88
2018-06-30T06:35:56.570Z,70.39
2018-06-30T06:36:56.354Z,68.98
2018-06-30T06:37:56.335Z,68.62
2018-06-30T06:38:56.315Z,67.21
2018-06-30T06:39:56.304Z,68.85
2018-06-30T06:40:56.289Z,67.98
2018-06-30T06:41:56.268Z,67.36
2018-06-30T06:42:56.252Z,67.52
2018-06-30T06:43:56.233Z,67.17
2018-06-30T06:44:56.218Z,67.59
2018-06-30T06:45:56.232Z,66.53
2018-06-30T06:46:56.183Z,65.43
2018-06-30T06:47:56.170Z,66.40
2018-06-30T06:49:38.513Z,66.66
2018-06-30T06:50:38.295Z,67.85
2018-06-30T06:51:38.285Z,66.56
2018-06-30T06:52:41.287Z,67.49
2018-06-30T06:53:38.246Z,66.33
2018-06-30T06:54:38.228Z,65.34
2018-06-30T06:55:38.213Z,65.75
2018-06-30T06:56:38.402Z,66.17
2018-06-30T06:57:38.183Z,67.85
2018-06-30T06:58:38.176Z,68.26
2018-06-30T06:59:38.362Z,68.01
2018-06-30T07:00:38.149Z,67.78
2018-06-30T07:01:38.383Z,67.04
2018-06-30T07:02:38.101Z,66.11
2018-06-30T07:03:38.086Z,64.98
2018-06-30T07:06:02.591Z,63.24
2018-06-30T07:07:02.373Z,64.31
2018-06-30T07:08:02.356Z,63.76
2018-06-30T07:09:02.346Z,63.31
2018-06-30T07:10:02.525Z,63.21
2018-06-30T07:11:02.396Z,63.31
2018-06-30T07:12:02.497Z,64.11
2018-06-30T07:13:02.283Z,65.17
2018-06-30T07:14:02.265Z,64.72
2018-06-30T07:15:02.258Z,64.01
2018-06-30T07:16:02.233Z,65.27
2018-06-30T07:17:02.219Z,64.27
2018-06-30T07:18:02.401Z,64.56
2018-06-30T07:19:02.183Z,63.98
2018-06-30T07:20:02.181Z,62.76
2018-06-30T07:21:02.155Z,62.60
2018-06-30T07:22:02.353Z,64.27
2018-06-30T07:23:02.125Z,62.53
2018-06-30T07:24:02.111Z,60.79
2018-06-30T07:25:02.096Z,61.30
2018-06-30T07:26:02.083Z,62.02
2018-06-30T07:27:02.070Z,62.21
2018-06-30T07:28:02.052Z,62.56
2018-06-30T07:29:02.034Z,61.57
2018-06-30T07:30:02.264Z,61.54
2018-06-30T07:31:02.199Z,61.15
2018-06-30T07:32:02.152Z,61.30
2018-06-30T07:33:02.123Z,59.47
2018-06-30T07:34:02.057Z,59.98
2018-06-30T07:35:02.147Z,60.34
2018-06-30T07:36:02.134Z,59.28
2018-06-30T07:37:02.120Z,59.66
2018-06-30T07:38:01.911Z,59.76
2018-06-30T07:39:01.887Z,59.38
2018-06-30T07:40:01.873Z,60.05
2018-06-30T07:41:01.856Z,61.76
2018-06-30T07:42:02.043Z,61.30
2018-06-30T07:43:01.826Z,60.21
2018-06-30T07:44:01.812Z,59.05
2018-06-30T07:45:01.804Z,58.53
2018-06-30T07:46:01.987Z,58.80
2018-06-30T07:47:01.979Z,59.21
2018-06-30T07:48:01.956Z,59.33
2018-06-30T07:49:01.941Z,59.01
2018-06-30T07:50:01.770Z,59.23
2018-06-30T07:51:01.924Z,59.31
2018-06-30T07:52:01.897Z,60.05
2018-06-30T07:53:01.680Z,60.14
2018-06-30T07:54:01.869Z,59.91
2018-06-30T07:55:01.652Z,58.78
2018-06-30T07:56:02.455Z,58.23
2018-06-30T08:10:22.849Z,59.14
2018-06-30T08:11:22.632Z,59.05
2018-06-30T08:12:22.822Z,58.91
2018-06-30T08:13:22.601Z,57.53
2018-06-30T08:14:22.789Z,56.77
2018-06-30T08:15:26.209Z,56.20
2018-06-30T08:16:25.995Z,56.94
2018-06-30T08:17:22.750Z,57.59
2018-06-30T08:18:22.533Z,58.85
2018-06-30T08:32:01.593Z,58.42
2018-06-30T08:33:01.379Z,57.58
2018-06-30T08:34:01.362Z,55.93
2018-06-30T08:35:01.349Z,56.59
2018-06-30T08:37:25.862Z,55.90
2018-06-30T08:38:25.646Z,56.59
2018-06-30T08:39:25.632Z,57.33
2018-06-30T08:40:25.618Z,57.79
2018-06-30T08:41:25.599Z,58.37
2018-06-30T08:42:25.588Z,58.49
2018-06-30T08:43:25.608Z,56.90
2018-06-30T08:44:25.768Z,56.32
2018-06-30T08:45:25.753Z,56.45
2018-06-30T08:46:25.743Z,56.41
2018-06-30T08:47:25.724Z,55.57
2018-06-30T08:48:25.711Z,55.08
2018-06-30T08:50:07.864Z,54.31
2018-06-30T08:51:07.697Z,54.50
2018-06-30T08:52:07.633Z,53.97
2018-06-30T08:53:07.620Z,53.08
2018-06-30T08:54:07.607Z,53.56
2018-06-30T08:55:07.594Z,53.83
2018-06-30T08:56:07.582Z,54.19
2018-06-30T08:57:07.572Z,54.67
2018-06-30T08:58:07.560Z,55.26
2018-06-30T08:59:07.751Z,54.77
2018-06-30T09:00:07.534Z,55.18
2018-06-30T09:01:49.887Z,53.61
2018-06-30T09:02:49.671Z,53.41
2018-06-30T09:03:49.659Z,55.52
2018-06-30T09:04:49.647Z,54.80
2018-06-30T09:05:49.633Z,53.56
2018-06-30T09:06:49.826Z,53.85
2018-06-30T09:07:49.609Z,53.88
2018-06-30T09:08:49.801Z,51.18
2018-06-30T09:09:49.796Z,50.29
2018-06-30T09:10:53.612Z,51.23
2018-06-30T09:11:49.616Z,52.08
2018-06-30T09:12:49.549Z,52.88
2018-06-30T09:13:49.538Z,52.28
2018-06-30T09:14:49.532Z,51.98
2018-06-30T09:15:49.514Z,50.89
2018-06-30T09:16:49.504Z,49.12
2018-06-30T09:17:49.491Z,50.77
2018-06-30T09:18:49.479Z,49.22
2018-06-30T09:19:49.471Z,49.39
2018-06-30T09:20:49.459Z,49.80
2018-06-30T09:21:49.447Z,49.90
2018-06-30T09:22:49.434Z,51.84
2018-06-30T09:23:49.424Z,52.23
2018-06-30T09:24:49.409Z,51.59
2018-06-30T09:25:49.401Z,53.02
2018-06-30T09:26:49.591Z,53.73
2018-06-30T09:27:49.377Z,52.78
2018-06-30T09:28:49.368Z,52.23
2018-06-30T09:29:49.610Z,51.09
2018-06-30T09:30:49.345Z,50.82
2018-06-30T09:31:49.334Z,50.21
2018-06-30T09:32:49.321Z,49.63
2018-06-30T09:33:49.312Z,51.33
2018-06-30T09:34:49.302Z,52.44
2018-06-30T09:35:49.289Z,53.91
2018-06-30T09:36:49.284Z,55.10
2018-06-30T09:37:49.280Z,54.16
2018-06-30T09:38:52.076Z,52.95
2018-06-30T09:39:49.243Z,52.28
2018-06-30T09:40:49.236Z,52.01
2018-06-30T09:41:49.224Z,51.87
2018-06-30T09:42:49.214Z,49.44
2018-06-30T09:43:49.203Z,50.68
2018-06-30T09:44:49.250Z,51.75
2018-06-30T09:45:49.174Z,51.28
2018-06-30T09:46:49.161Z,50.82
2018-06-30T09:47:49.152Z,50.56
2018-06-30T09:48:49.143Z,50.60
2018-06-30T09:49:49.131Z,51.55
2018-06-30T09:50:49.126Z,52.06
2018-06-30T09:51:49.108Z,52.06
2018-06-30T09:52:49.308Z,51.65
2018-06-30T09:53:49.088Z,51.48
2018-06-30T09:54:49.080Z,51.57
2018-06-30T09:55:49.068Z,51.77
2018-06-30T09:56:49.108Z,50.84
2018-06-30T09:57:49.045Z,51.53
2018-06-30T09:58:49.032Z,52.08
2018-06-30T09:59:49.021Z,53.02
2018-06-30T10:00:49.216Z,53.51
2018-06-30T10:01:49.002Z,54.55
2018-06-30T10:02:48.991Z,54.16
2018-06-30T10:03:48.981Z,54.43
2018-06-30T10:04:48.969Z,55.17
2018-06-30T10:05:48.956Z,55.43
2018-06-30T10:06:49.152Z,56.98
2018-06-30T10:07:48.933Z,56.92
2018-06-30T10:08:48.922Z,56.70
2018-06-30T10:09:49.113Z,57.79
2018-06-30T10:10:49.100Z,59.22
2018-06-30T10:11:49.088Z,58.34
2018-06-30T10:12:48.872Z,57.14
2018-06-30T10:13:48.859Z,55.27
2018-06-30T10:14:49.047Z,56.95
2018-06-30T10:15:49.036Z,57.15
2018-06-30T10:16:49.020Z,57.18
2018-06-30T10:17:48.806Z,55.30
2018-06-30T10:18:48.791Z,54.06
2018-06-30T10:19:48.979Z,53.44
2018-06-30T10:20:48.799Z,53.08
2018-06-30T10:21:48.953Z,50.87
2018-06-30T10:22:48.742Z,51.11
2018-06-30T10:23:48.724Z,49.07
2018-06-30T10:24:48.708Z,51.72
2018-06-30T10:25:48.697Z,52.86
2018-06-30T10:26:48.835Z,52.42
2018-06-30T10:27:48.672Z,50.51
2018-06-30T10:28:48.664Z,51.06
2018-06-30T10:29:48.650Z,51.35
2018-06-30T10:30:48.643Z,51.98
2018-06-30T10:31:48.627Z,52.01
2018-06-30T10:32:48.613Z,53.55
2018-06-30T10:33:48.597Z,53.94
2018-06-30T10:34:48.582Z,54.66
2018-06-30T10:35:48.571Z,58.02
2018-06-30T10:36:48.557Z,57.60
2018-06-30T10:37:48.547Z,58.02
2018-06-30T10:38:48.734Z,58.02
2018-06-30T10:39:48.719Z,57.43
2018-06-30T10:40:48.512Z,55.78
2018-06-30T10:41:48.494Z,54.21
2018-06-30T10:42:48.478Z,53.66
2018-06-30T10:43:48.464Z,52.42
2018-06-30T10:44:48.449Z,52.19
2018-06-30T10:45:48.438Z,50.04
2018-06-30T10:46:48.436Z,50.04
2018-06-30T10:47:48.414Z,50.82
2018-06-30T10:48:48.602Z,49.66
2018-06-30T10:49:48.391Z,51.16
2018-06-30T10:52:55.064Z,52.12
2018-06-30T10:53:54.848Z,54.69
2018-06-30T10:54:54.835Z,56.03
2018-06-30T10:55:54.823Z,53.44
2018-06-30T10:56:54.811Z,52.25
2018-06-30T10:57:54.798Z,50.63
2018-06-30T10:58:54.786Z,51.21
2018-06-30T10:59:54.780Z,50.82
2018-06-30T11:00:54.773Z,49.95
2018-06-30T11:01:54.755Z,50.87
2018-06-30T11:02:54.744Z,52.83
2018-06-30T11:03:54.747Z,53.12
2018-06-30T11:04:54.716Z,54.26
2018-06-30T11:05:54.739Z,55.20
2018-06-30T11:06:55.704Z,54.59
2018-06-30T11:07:54.885Z,56.40
2018-06-30T11:08:54.667Z,57.01
2018-06-30T11:09:54.860Z,57.30
2018-06-30T11:10:54.675Z,56.32
2018-06-30T11:11:54.831Z,53.83
2018-06-30T11:12:54.817Z,52.23
2018-06-30T11:13:54.803Z,50.96
2018-06-30T11:14:54.791Z,50.43
2018-06-30T11:15:54.572Z,52.11
2018-06-30T11:16:54.763Z,52.25
2018-06-30T11:17:54.750Z,49.10
2018-06-30T11:18:57.365Z,47.34
2018-06-30T11:19:57.351Z,46.69
2018-06-30T11:20:54.521Z,48.15
2018-06-30T11:21:54.706Z,46.03
2018-06-30T11:22:54.490Z,46.73
2018-06-30T11:23:54.479Z,44.96
2018-06-30T11:24:54.670Z,45.75
2018-06-30T11:25:54.659Z,48.39
2018-06-30T11:26:54.650Z,49.92
2018-06-30T11:27:54.635Z,52.00
2018-06-30T11:28:54.624Z,53.23
2018-06-30T11:29:54.612Z,53.75
2018-06-30T11:30:54.605Z,53.26
2018-06-30T11:31:54.392Z,53.63
2018-06-30T11:32:54.580Z,51.77
2018-06-30T11:33:54.573Z,49.10
2018-06-30T11:34:54.554Z,48.13
2018-06-30T11:36:36.706Z,47.83
2018-06-30T11:37:36.492Z,47.20
2018-06-30T11:38:36.480Z,47.39
2018-06-30T11:39:36.474Z,47.00
2018-06-30T11:40:36.676Z,46.66
2018-06-30T11:41:36.668Z,45.76
2018-06-30T11:42:36.640Z,46.25
2018-06-30T11:43:39.254Z,45.08
2018-06-30T11:44:37.433Z,45.54
2018-06-30T11:45:36.416Z,46.78
2018-06-30T11:46:36.604Z,48.39
2018-06-30T11:47:36.394Z,49.29
2018-06-30T11:48:36.588Z,50.43
2018-06-30T11:49:36.574Z,51.74
2018-06-30T11:50:36.566Z,53.45
2018-06-30T11:51:36.356Z,53.58
2018-06-30T11:52:36.543Z,53.75
2018-06-30T11:53:36.530Z,54.03
2018-06-30T11:54:36.518Z,54.23
2018-06-30T11:55:36.512Z,54.11
2018-06-30T11:56:36.496Z,54.11
2018-06-30T11:57:36.481Z,53.89
2018-06-30T11:58:36.472Z,53.94
2018-06-30T11:59:36.260Z,53.22
2018-06-30T12:00:36.508Z,51.40
2018-06-30T12:01:36.426Z,50.77
2018-06-30T12:02:36.415Z,48.25
2018-06-30T12:03:36.510Z,48.57
2018-06-30T12:04:36.398Z,47.28
2018-06-30T12:05:36.375Z,47.23
2018-06-30T12:06:36.364Z,46.86
2018-06-30T12:07:36.351Z,46.77
2018-06-30T12:08:36.344Z,46.01
2018-06-30T12:09:36.128Z,46.25
2018-06-30T12:10:36.114Z,44.89
2018-06-30T12:11:36.303Z,46.08
2018-06-30T12:12:36.090Z,48.15
2018-06-30T12:13:36.080Z,49.24
2018-06-30T12:14:36.067Z,52.58
2018-06-30T12:15:36.060Z,53.17
2018-06-30T12:16:36.048Z,52.15
2018-06-30T12:17:36.036Z,51.31
2018-06-30T12:18:36.022Z,50.43
2018-06-30T12:19:36.009Z,49.97
2018-06-30T12:20:35.997Z,49.32
2018-06-30T12:21:35.985Z,49.12
2018-06-30T12:22:35.980Z,48.25
2018-06-30T12:23:36.166Z,48.30
2018-06-30T12:24:36.159Z,47.15
2018-06-30T12:25:35.944Z,45.72
2018-06-30T12:26:35.934Z,46.25
2018-06-30T12:28:18.288Z,45.91
2018-06-30T12:29:18.278Z,46.08
2018-06-30T12:30:18.126Z,46.08
2018-06-30T12:31:18.261Z,46.28
2018-06-30T12:32:18.311Z,45.79
2018-06-30T12:33:18.035Z,45.81
2018-06-30T12:34:18.233Z,45.77
2018-06-30T12:35:18.019Z,47.18
2018-06-30T12:36:18.212Z,48.00
2018-06-30T12:37:18.202Z,49.05
2018-06-30T12:38:18.191Z,49.63
2018-06-30T12:39:18.181Z,50.07
2018-06-30T12:40:18.172Z,51.09
2018-06-30T12:41:17.959Z,49.66
2018-06-30T12:42:17.955Z,49.77
2018-06-30T12:43:17.935Z,48.61
2018-06-30T12:44:17.924Z,47.55
2018-06-30T12:45:17.913Z,48.20
2018-06-30T12:46:17.904Z,47.25
2018-06-30T12:47:17.895Z,47.06
2018-06-30T12:48:17.888Z,46.98
2018-06-30T12:49:17.871Z,45.99
2018-06-30T12:50:17.863Z,47.08
2018-06-30T12:51:17.850Z,47.01
2018-06-30T12:52:17.846Z,46.64
2018-06-30T12:53:17.832Z,44.31
2018-06-30T12:54:17.878Z,44.72
2018-06-30T12:56:00.179Z,45.67
2018-06-30T12:56:59.967Z,44.87
2018-06-30T12:57:59.961Z,46.09
2018-06-30T12:58:59.945Z,47.64
2018-06-30T13:00:00.137Z,47.45
2018-06-30T13:00:59.926Z,47.72
2018-06-30T13:02:00.116Z,48.35
2018-06-30T13:03:00.107Z,49.85
2018-06-30T13:04:00.100Z,51.01
2018-06-30T13:05:00.084Z,51.23
2018-06-30T13:06:00.071Z,51.64
2018-06-30T13:07:00.866Z,50.70
2018-06-30T13:08:00.049Z,49.92
2018-06-30T13:08:59.829Z,49.00
2018-06-30T13:10:00.025Z,48.93
2018-06-30T13:11:00.010Z,47.76
2018-06-30T13:11:59.795Z,47.18
2018-06-30T13:12:59.792Z,47.47
2018-06-30T13:13:59.770Z,48.18
2018-06-30T13:14:59.761Z,47.32
2018-06-30T13:15:59.952Z,45.67
2018-06-30T13:16:59.940Z,46.60
2018-06-30T13:17:59.733Z,46.96
2018-06-30T13:18:59.713Z,48.00
2018-06-30T13:20:42.073Z,47.18
2018-06-30T13:21:41.853Z,46.21
2018-06-30T13:22:41.842Z,46.79
2018-06-30T13:23:41.832Z,46.52
2018-06-30T13:24:41.817Z,45.48
2018-06-30T13:25:41.805Z,44.74
2018-06-30T13:26:41.794Z,44.43
2018-06-30T13:27:41.784Z,44.60
2018-06-30T13:28:41.815Z,45.65
2018-06-30T13:29:41.769Z,45.92
2018-06-30T13:30:41.757Z,46.62
2018-06-30T13:31:41.740Z,45.97
2018-06-30T13:32:41.731Z,46.45
2018-06-30T13:33:41.732Z,46.06
2018-06-30T13:34:41.716Z,47.08
2018-06-30T13:35:41.696Z,47.62
2018-06-30T13:37:41.673Z,51.23
2018-06-30T13:38:41.661Z,51.25
2018-06-30T13:39:41.649Z,50.16
2018-06-30T13:40:41.690Z,49.92
2018-06-30T13:41:41.626Z,48.61
2018-06-30T13:42:41.627Z,46.01
2018-06-30T13:43:41.673Z,45.48
2018-06-30T13:44:41.596Z,46.01
2018-06-30T13:45:41.575Z,45.94
2018-06-30T13:46:41.563Z,44.62
2018-06-30T13:47:41.556Z,44.55
2018-06-30T13:48:41.543Z,43.95
2018-06-30T13:49:41.531Z,42.90
2018-06-30T13:50:41.519Z,43.36
2018-06-30T13:51:41.508Z,44.19
2018-06-30T13:52:41.512Z,45.62
2018-06-30T13:53:41.690Z,45.53
2018-06-30T13:54:41.475Z,45.34
2018-06-30T13:55:41.471Z,45.89
2018-06-30T13:56:41.453Z,47.38
2018-06-30T13:57:41.443Z,46.11
2018-06-30T13:58:41.435Z,46.69
2018-06-30T13:59:41.422Z,46.67
2018-06-30T14:00:41.416Z,46.53
2018-06-30T14:01:41.403Z,47.09
2018-06-30T14:02:41.392Z,48.11
2018-06-30T14:03:41.382Z,48.86
2018-06-30T14:04:41.372Z,49.75
2018-06-30T14:05:41.356Z,48.30
2018-06-30T14:06:41.343Z,48.39
2018-06-30T14:07:41.331Z,49.41
2018-06-30T14:08:41.320Z,47.50
2018-06-30T14:09:41.310Z,45.37
2018-06-30T14:10:41.301Z,45.37
2018-06-30T14:11:41.281Z,46.07
2018-06-30T14:12:41.285Z,44.85
2018-06-30T14:13:41.260Z,44.85
2018-06-30T14:14:41.248Z,45.26
2018-06-30T14:15:41.234Z,44.43
2018-06-30T14:16:41.220Z,43.09
2018-06-30T14:17:41.214Z,42.46
2018-06-30T14:18:41.229Z,44.00
2018-06-30T14:19:41.185Z,44.02
2018-06-30T14:30:31.640Z,49.12
2018-06-30T14:31:31.628Z,48.83
2018-06-30T14:32:31.412Z,48.25
2018-06-30T14:36:20.247Z,49.05
2018-06-30T14:37:20.028Z,48.30
2018-06-30T15:00:49.327Z,49.10
2018-06-30T15:01:49.117Z,48.25
2018-06-30T15:02:49.096Z,47.86
2018-06-30T15:03:49.087Z,48.08
2018-06-30T15:04:49.085Z,47.23
2018-06-30T15:05:49.055Z,46.38